地図

経路データ

SID SEASON NUMBER BASIN SUBBASIN NAME ISO_TIME NATURE LAT LON WMO_WIND WMO_PRES WMO_AGENCY TRACK_TYPE DIST2LAND LANDFALL IFLAG USA_AGENCY USA_ATCF_ID USA_LAT USA_LON USA_RECORD USA_STATUS USA_WIND USA_PRES USA_SSHS USA_R34_NE USA_R34_SE USA_R34_SW USA_R34_NW USA_R50_NE USA_R50_SE USA_R50_SW USA_R50_NW USA_R64_NE USA_R64_SE USA_R64_SW USA_R64_NW USA_POCI USA_ROCI USA_RMW USA_EYE TOKYO_LAT TOKYO_LON TOKYO_GRADE TOKYO_WIND TOKYO_PRES TOKYO_R50_DIR TOKYO_R50_LONG TOKYO_R50_SHORT TOKYO_R30_DIR TOKYO_R30_LONG TOKYO_R30_SHORT TOKYO_LAND CMA_LAT CMA_LON CMA_CAT CMA_WIND CMA_PRES HKO_LAT HKO_LON HKO_CAT HKO_WIND HKO_PRES NEWDELHI_LAT NEWDELHI_LON NEWDELHI_GRADE NEWDELHI_WIND NEWDELHI_PRES NEWDELHI_CI NEWDELHI_DP NEWDELHI_POCI REUNION_LAT REUNION_LON REUNION_TYPE REUNION_WIND REUNION_PRES REUNION_TNUM REUNION_CI REUNION_RMW REUNION_R34_NE REUNION_R34_SE REUNION_R34_SW REUNION_R34_NW REUNION_R50_NE REUNION_R50_SE REUNION_R50_SW REUNION_R50_NW REUNION_R64_NE REUNION_R64_SE REUNION_R64_SW REUNION_R64_NW BOM_LAT BOM_LON BOM_TYPE BOM_WIND BOM_PRES BOM_TNUM BOM_CI BOM_RMW BOM_R34_NE BOM_R34_SE BOM_R34_SW BOM_R34_NW BOM_R50_NE BOM_R50_SE BOM_R50_SW BOM_R50_NW BOM_R64_NE BOM_R64_SE BOM_R64_SW BOM_R64_NW BOM_ROCI BOM_POCI BOM_EYE BOM_POS_METHOD BOM_PRES_METHOD NADI_LAT NADI_LON NADI_CAT NADI_WIND NADI_PRES WELLINGTON_LAT WELLINGTON_LON WELLINGTON_WIND WELLINGTON_PRES DS824_LAT DS824_LON DS824_STAGE DS824_WIND DS824_PRES TD9636_LAT TD9636_LON TD9636_STAGE TD9636_WIND TD9636_PRES TD9635_LAT TD9635_LON TD9635_WIND TD9635_PRES TD9635_ROCI NEUMANN_LAT NEUMANN_LON NEUMANN_CLASS NEUMANN_WIND NEUMANN_PRES MLC_LAT MLC_LON MLC_CLASS MLC_WIND MLC_PRES USA_GUST BOM_GUST BOM_GUST_PER REUNION_GUST REUNION_GUST_PER USA_SEAHGT USA_SEARAD_NE USA_SEARAD_SE USA_SEARAD_SW USA_SEARAD_NW STORM_SPEED STORM_DIR
1894270N15123 1894 44 WP MM NOT_NAMED 1894-09-27 04:00:00 NR 15.1000 122.600 main 100 78 __________O___ -1 15.1000 122.600 4 9 272
1894270N15123 1894 44 WP MM NOT_NAMED 1894-09-27 06:00:00 NR 15.1108 122.296 main 78 34 __________P___ -1 15.1108 122.296 4 9 272
1894270N15123 1894 44 WP MM NOT_NAMED 1894-09-27 09:00:00 NR 15.1287 121.841 main 34 0 __________P___ -1 15.1287 121.841 4 9 273
1894270N15123 1894 44 WP MM NOT_NAMED 1894-09-27 12:00:00 NR 15.1524 121.390 main 0 0 __________P___ -1 15.1524 121.390 4 9 274
1894270N15123 1894 44 WP MM NOT_NAMED 1894-09-27 15:00:00 NR 15.1860 120.946 main 0 0 __________P___ -1 15.1860 120.946 4 9 275
1894270N15123 1894 44 WP MM NOT_NAMED 1894-09-27 16:00:00 NR 15.2000 120.800 main 0 0 __________O___ -1 15.2000 120.800 4 8 276
1894270N15123 1894 44 WP MM NOT_NAMED 1894-09-27 18:00:00 NR 15.2336 120.511 main 0 0 __________P___ -1 15.2336 120.511 4 8 278
1894270N15123 1894 44 WP MM NOT_NAMED 1894-09-27 21:00:00 NR 15.3027 120.083 main 0 0 __________P___ -1 15.3027 120.083 4 8 282
1894270N15123 1894 44 WP MM NOT_NAMED 1894-09-28 00:00:00 NR 15.4026 119.661 main 21 32 __________P___ -1 15.4026 119.661 4 8 286
1894270N15123 1894 44 WP MM NOT_NAMED 1894-09-28 03:00:00 NR 15.5427 119.240 main 75 69 __________P___ -1 15.5427 119.240 4 9 290
1894270N15123 1894 44 WP MM NOT_NAMED 1894-09-28 04:00:00 NR 15.6000 119.100 main 78 78 __________O___ -1 15.6000 119.100 4 9 294
1894270N15123 1894 44 WP MM NOT_NAMED 1894-09-28 06:00:00 NR 15.7244 118.811 main 101 101 __________P___ -1 15.7244 118.811 4 9 297
1894270N15123 1894 44 WP MM NOT_NAMED 1894-09-28 09:00:00 NR 15.9489 118.378 main 139 139 __________P___ -1 15.9489 118.378 4 10 300
1894270N15123 1894 44 WP MM NOT_NAMED 1894-09-28 12:00:00 NR 16.2103 117.951 main 183 193 __________P___ -1 16.2103 117.951 4 10 304
1894270N15123 1894 44 WP MM NOT_NAMED 1894-09-28 15:00:00 NR 16.4992 117.535 main 241 241 __________P___ -1 16.4992 117.535 4 10 306
1894270N15123 1894 44 WP MM NOT_NAMED 1894-09-28 16:00:00 NR 16.6000 117.400 main 254 254 __________O___ -1 16.6000 117.400 4 9 309
1894270N15123 1894 44 WP MM NOT_NAMED 1894-09-28 18:00:00 NR 16.7991 117.154 main 281 291 __________P___ -1 16.7991 117.154 4 9 312
1894270N15123 1894 44 WP MM NOT_NAMED 1894-09-28 21:00:00 NR 17.1168 116.798 main 331 331 __________P___ -1 17.1168 116.798 4 9 313
1894270N15123 1894 44 WP MM NOT_NAMED 1894-09-29 00:00:00 NR 17.4494 116.436 main 382 385 __________P___ -1 17.4494 116.436 4 10 313
1894270N15123 1894 44 WP MM NOT_NAMED 1894-09-29 03:00:00 NR 17.7877 116.042 main 437 437 __________P___ -1 17.7877 116.042 4 10 311
1894270N15123 1894 44 WP MM NOT_NAMED 1894-09-29 04:00:00 NR 17.9000 115.900 main 451 451 __________O___ -1 17.9000 115.900 4 11 307
1894270N15123 1894 44 WP MM NOT_NAMED 1894-09-29 06:00:00 NR 18.1142 115.581 main 488 444 __________P___ -1 18.1142 115.581 4 12 304
1894270N15123 1894 44 WP MM NOT_NAMED 1894-09-29 09:00:00 NR 18.4353 115.066 main 444 378 __________P___ -1 18.4353 115.066 4 12 303
1894270N15123 1894 44 WP MM NOT_NAMED 1894-09-29 12:00:00 NR 18.7589 114.524 main 378 319 __________P___ -1 18.7589 114.524 4 12 302
1894270N15123 1894 44 WP MM NOT_NAMED 1894-09-29 15:00:00 NR 19.0883 113.979 main 319 297 __________P___ -1 19.0883 113.979 4 12 303
1894270N15123 1894 44 WP MM NOT_NAMED 1894-09-29 16:00:00 NR 19.2000 113.800 main 297 262 __________O___ -1 19.2000 113.800 4 12 304
1894270N15123 1894 44 WP MM NOT_NAMED 1894-09-29 18:00:00 NR 19.4273 113.455 main 262 200 __________P___ -1 19.4273 113.455 4 12 306
1894270N15123 1894 44 WP MM NOT_NAMED 1894-09-29 21:00:00 NR 19.7749 112.945 main 200 156 __________P___ -1 19.7749 112.945 4 12 306
1894270N15123 1894 44 WP MM NOT_NAMED 1894-09-30 00:00:00 NR 20.1275 112.445 main 156 119 __________P___ -1 20.1275 112.445 4 12 307
1894270N15123 1894 44 WP MM NOT_NAMED 1894-09-30 03:00:00 NR 20.4820 111.959 main 119 102 __________P___ -1 20.4820 111.959 4 12 308
1894270N15123 1894 44 WP MM NOT_NAMED 1894-09-30 04:00:00 NR 20.6000 111.800 main 102 70 __________O___ -1 20.6000 111.800 4 11 307
1894270N15123 1894 44 WP MM NOT_NAMED 1894-09-30 06:00:00 NR 20.8200 111.475 main 70 30 __________P___ -1 20.8200 111.475 4 11 306
1894270N15123 1894 44 WP MM NOT_NAMED 1894-09-30 09:00:00 NR 21.1501 111.000 main 30 0 __________P___ -1 21.1501 111.000 4 11 308
1894270N15123 1894 44 WP MM NOT_NAMED 1894-09-30 12:00:00 NR 21.4937 110.549 main 0 0 __________P___ -1 21.4937 110.549 4 11 312
1894270N15123 1894 44 WP MM NOT_NAMED 1894-09-30 15:00:00 NR 21.8665 110.130 main 0 0 __________P___ -1 21.8665 110.130 4 11 315
1894270N15123 1894 44 WP MM NOT_NAMED 1894-09-30 16:00:00 NR 22.0000 110.000 main 0 0 __________O___ -1 22.0000 110.000 4 11 320
1894270N15123 1894 44 WP MM NOT_NAMED 1894-09-30 18:00:00 NR 22.2828 109.754 main 0 0 __________P___ -1 22.2828 109.754 4 11 324
1894270N15123 1894 44 WP MM NOT_NAMED 1894-09-30 21:00:00 NR 22.7405 109.414 main 0 0 __________P___ -1 22.7405 109.414 4 11 327
1894270N15123 1894 44 WP MM NOT_NAMED 1894-10-01 00:00:00 NR 23.2274 109.100 main 0 0 __________P___ -1 23.2274 109.100 4 11 330
1894270N15123 1894 44 WP MM NOT_NAMED 1894-10-01 03:00:00 NR 23.7308 108.799 main 0 0 __________P___ -1 23.7308 108.799 4 12 331
1894270N15123 1894 44 WP MM NOT_NAMED 1894-10-01 04:00:00 NR 23.9000 108.700 main 0 __________O___ -1 23.9000 108.700 4 12 333

デジタル台風データ・検索

IBTrACS Databaseについて

本データベースは、米国NOAAが公開する1842年以降の世界の熱帯低気圧のベストトラックデータアーカイブInternational Best Track Archive for Climate Stewardship (IBTrACS)を、ウェブで閲覧しやすい形式に変換したものです。

最終更新日:2021-12-03